Time;durP1;ratioP1;P1;durP2;ratioP2;P2;SDS_P1;SDS_P2;PMS_P1;PMS_P2;Temp;Humidity;BMP_temperature;BMP_pressure;BME280_temperature;BME280_humidity;BME280_pressure;Samples;Min_cycle;Max_cycle;Signal;HPM_P1;HPM_P2
2023/11/23 00:00:58;;;;;;;26.15;13.73;;;;;;;;;;5062863;28;20056;-78
2023/11/23 00:03:23;;;;;;;28.58;13.85;;;;;;;;;;5066591;28;20033;-78
2023/11/23 00:05:49;;;;;;;24.95;14.15;;;;;;;;;;5077372;28;20136;-78
2023/11/23 00:08:14;;;;;;;27.67;15.65;;;;;;;;;;5053495;28;20107;-78
2023/11/23 00:10:39;;;;;;;26.55;14.35;;;;;;;;;;5064853;28;20027;-77
2023/11/23 00:13:05;;;;;;;30.55;15.65;;;;;;;;;;5037738;28;20037;-77
2023/11/23 00:15:31;;;;;;;29.15;14.60;;;;;;;;;;5063521;28;20040;-78
2023/11/23 00:17:56;;;;;;;26.67;14.35;;;;;;;;;;5070215;28;20036;-78
2023/11/23 00:20:22;;;;;;;26.48;14.50;;;;;;;;;;5067952;28;20058;-77
2023/11/23 00:22:49;;;;;;;27.52;14.48;;;;;;;;;;5070376;28;20376;-78
2023/11/23 00:25:14;;;;;;;25.02;15.07;;;;;;;;;;5063539;28;20483;-78
2023/11/23 00:27:41;;;;;;;24.83;14.57;;;;;;;;;;5067754;28;20087;-77
2023/11/23 00:30:07;;;;;;;24.10;13.95;;;;;;;;;;5064098;28;20059;-78
2023/11/23 00:32:33;;;;;;;26.73;14.80;;;;;;;;;;5069565;28;20068;-78
2023/11/23 00:34:58;;;;;;;29.10;15.13;;;;;;;;;;5068008;28;20060;-77
2023/11/23 00:37:24;;;;;;;30.58;16.23;;;;;;;;;;5062027;28;20025;-77
2023/11/23 00:39:49;;;;;;;23.77;14.35;;;;;;;;;;5064384;28;20037;-77
2023/11/23 00:42:14;;;;;;;26.15;15.23;;;;;;;;;;5062990;28;20032;-77
2023/11/23 00:44:40;;;;;;;30.30;14.65;;;;;;;;;;5065890;28;20031;-78
2023/11/23 00:47:06;;;;;;;26.33;14.10;;;;;;;;;;5060399;28;20052;-78
2023/11/23 00:49:33;;;;;;;27.10;15.35;;;;;;;;;;5053157;28;20429;-77
2023/11/23 00:51:59;;;;;;;25.38;14.55;;;;;;;;;;5068450;28;20017;-78
2023/11/23 00:54:24;;;;;;;25.63;15.07;;;;;;;;;;5069662;28;20028;-77
2023/11/23 00:56:52;;;;;;;25.02;14.60;;;;;;;;;;5067118;28;20029;-77
2023/11/23 00:59:17;;;;;;;26.80;15.23;;;;;;;;;;5067335;28;20028;-77
2023/11/23 01:01:44;;;;;;;23.30;14.52;;;;;;;;;;5064808;28;20036;-77
2023/11/23 01:04:10;;;;;;;29.80;15.05;;;;;;;;;;5065530;28;20034;-77
2023/11/23 01:06:35;;;;;;;25.85;14.95;;;;;;;;;;5065479;28;20032;-78
2023/11/23 01:09:00;;;;;;;26.92;15.48;;;;;;;;;;5071607;28;20111;-78
2023/11/23 01:11:26;;;;;;;27.38;15.02;;;;;;;;;;5068896;28;20056;-78
2023/11/23 01:13:51;;;;;;;22.73;14.57;;;;;;;;;;5051502;28;20402;-78
2023/11/23 01:16:17;;;;;;;30.60;16.02;;;;;;;;;;5048367;28;20397;-78
2023/11/23 01:18:43;;;;;;;28.77;15.98;;;;;;;;;;5070696;28;20561;-78
2023/11/23 01:21:09;;;;;;;28.08;16.10;;;;;;;;;;5052403;28;20115;-78
2023/11/23 01:23:34;;;;;;;29.13;16.08;;;;;;;;;;5052173;28;20123;-78
2023/11/23 01:25:59;;;;;;;26.52;15.45;;;;;;;;;;5045001;28;20066;-78
2023/11/23 01:28:25;;;;;;;26.00;15.98;;;;;;;;;;5058154;28;20505;-77
2023/11/23 01:30:50;;;;;;;27.10;15.52;;;;;;;;;;5051745;28;20417;-77
2023/11/23 01:33:17;;;;;;;25.67;15.95;;;;;;;;;;5060120;28;20033;-77
2023/11/23 01:35:42;;;;;;;28.73;16.48;;;;;;;;;;5060838;28;21537;-78
2023/11/23 01:38:09;;;;;;;27.00;16.23;;;;;;;;;;5079898;28;20451;-78
2023/11/23 01:40:34;;;;;;;25.13;14.25;;;;;;;;;;5062911;28;20036;-77
2023/11/23 01:43:01;;;;;;;26.27;15.23;;;;;;;;;;5062223;28;20107;-78
2023/11/23 01:45:26;;;;;;;31.13;17.23;;;;;;;;;;5040904;28;20025;-78
2023/11/23 01:47:52;;;;;;;25.42;15.80;;;;;;;;;;5067305;28;20037;-78
2023/11/23 01:50:20;;;;;;;29.67;15.98;;;;;;;;;;5065903;28;20029;-78
2023/11/23 01:52:47;;;;;;;25.95;15.75;;;;;;;;;;5070193;28;20089;-78
2023/11/23 01:55:15;;;;;;;30.23;16.05;;;;;;;;;;5063824;28;20116;-78
2023/11/23 01:57:41;;;;;;;25.75;16.00;;;;;;;;;;5081349;28;20524;-77
2023/11/23 02:00:08;;;;;;;27.40;15.65;;;;;;;;;;5065827;28;20035;-78
2023/11/23 02:02:33;;;;;;;24.45;14.88;;;;;;;;;;5050838;28;20379;-78
2023/11/23 02:05:03;;;;;;;26.45;15.57;;;;;;;;;;5046603;28;20044;-77
2023/11/23 02:07:29;;;;;;;26.85;15.10;;;;;;;;;;5062382;28;20053;-77
2023/11/23 02:09:54;;;;;;;25.27;15.65;;;;;;;;;;5053329;28;20067;-78
2023/11/23 02:12:21;;;;;;;27.55;16.15;;;;;;;;;;5066629;28;20414;-78
2023/11/23 02:14:53;;;;;;;25.52;15.38;;;;;;;;;;5062813;28;20103;-78
2023/11/23 02:17:19;;;;;;;27.40;14.88;;;;;;;;;;5067661;28;20067;-77
2023/11/23 02:19:47;;;;;;;25.15;15.00;;;;;;;;;;5065395;28;20056;-78
2023/11/23 02:22:13;;;;;;;26.20;14.85;;;;;;;;;;5068449;28;20016;-77
2023/11/23 02:24:43;;;;;;;30.08;14.95;;;;;;;;;;5063722;28;20040;-78
2023/11/23 02:27:10;;;;;;;26.15;14.50;;;;;;;;;;5065419;28;20116;-77
2023/11/23 02:29:37;;;;;;;25.05;14.18;;;;;;;;;;5062154;28;20027;-78
2023/11/23 02:32:07;;;;;;;24.83;14.07;;;;;;;;;;5065494;28;20028;-78
2023/11/23 02:34:37;;;;;;;21.65;13.50;;;;;;;;;;5051045;28;20151;-77
2023/11/23 02:37:03;;;;;;;21.48;14.18;;;;;;;;;;5063539;28;20029;-77
2023/11/23 02:39:29;;;;;;;25.70;14.10;;;;;;;;;;5064346;28;20111;-78
2023/11/23 02:41:56;;;;;;;21.30;13.05;;;;;;;;;;5047783;28;20025;-77
2023/11/23 02:44:22;;;;;;;22.75;13.93;;;;;;;;;;5062939;28;20530;-78
2023/11/23 02:46:48;;;;;;;27.02;13.63;;;;;;;;;;5066753;28;20120;-78
2023/11/23 02:49:14;;;;;;;23.65;13.20;;;;;;;;;;5035665;28;20025;-77
2023/11/23 02:51:40;;;;;;;24.33;14.15;;;;;;;;;;5052453;28;20040;-78
2023/11/23 02:54:06;;;;;;;24.30;14.02;;;;;;;;;;5067197;28;20427;-77
2023/11/23 02:56:31;;;;;;;23.88;12.77;;;;;;;;;;5049319;28;20028;-78
2023/11/23 02:58:57;;;;;;;22.55;13.30;;;;;;;;;;5068771;28;20032;-77
2023/11/23 03:01:23;;;;;;;24.67;12.82;;;;;;;;;;5066253;28;20398;-78
2023/11/23 03:03:49;;;;;;;23.98;12.98;;;;;;;;;;5030254;28;20040;-77
2023/11/23 03:06:15;;;;;;;24.33;12.93;;;;;;;;;;5070856;28;20083;-77
2023/11/23 03:08:40;;;;;;;25.42;13.55;;;;;;;;;;5064659;28;20513;-77
2023/11/23 03:11:06;;;;;;;27.83;14.25;;;;;;;;;;5057880;28;20051;-78
2023/11/23 03:13:32;;;;;;;23.02;13.65;;;;;;;;;;5051227;28;20064;-78
2023/11/23 03:15:57;;;;;;;20.42;13.68;;;;;;;;;;5050108;28;20036;-77
2023/11/23 03:18:22;;;;;;;21.35;14.25;;;;;;;;;;5064535;28;20035;-78
2023/11/23 03:20:48;;;;;;;20.83;13.05;;;;;;;;;;5063964;28;20024;-77
2023/11/23 03:23:13;;;;;;;21.60;14.32;;;;;;;;;;5040168;28;20028;-78
2023/11/23 03:25:39;;;;;;;22.38;13.95;;;;;;;;;;5075427;28;20033;-78
2023/11/23 03:28:06;;;;;;;21.45;13.93;;;;;;;;;;5064105;28;20136;-78
2023/11/23 03:30:32;;;;;;;25.35;14.27;;;;;;;;;;5048504;28;20044;-78
2023/11/23 03:32:58;;;;;;;20.80;14.25;;;;;;;;;;5065553;28;20040;-77
2023/11/23 03:35:23;;;;;;;22.38;13.60;;;;;;;;;;5050382;28;20101;-78
2023/11/23 03:37:49;;;;;;;23.67;13.65;;;;;;;;;;5061829;28;20393;-78
2023/11/23 03:40:14;;;;;;;26.48;13.68;;;;;;;;;;5069478;28;20086;-78
2023/11/23 03:42:40;;;;;;;20.75;13.30;;;;;;;;;;5059196;28;20557;-78
2023/11/23 03:45:06;;;;;;;25.20;14.45;;;;;;;;;;5057342;28;20032;-78
2023/11/23 03:47:31;;;;;;;21.50;12.98;;;;;;;;;;5082844;28;20094;-78
2023/11/23 03:49:57;;;;;;;23.23;13.98;;;;;;;;;;5068265;28;20067;-78
2023/11/23 03:52:22;;;;;;;22.60;14.13;;;;;;;;;;5066701;28;20374;-78
2023/11/23 03:54:48;;;;;;;22.85;13.85;;;;;;;;;;5062989;28;20040;-78
2023/11/23 03:57:14;;;;;;;22.13;13.65;;;;;;;;;;5066843;28;20032;-89
2023/11/23 03:59:39;;;;;;;21.60;13.55;;;;;;;;;;5043730;28;20074;-90
2023/11/23 04:02:05;;;;;;;22.42;13.73;;;;;;;;;;5041915;28;20033;-91
2023/11/23 04:04:31;;;;;;;24.27;14.02;;;;;;;;;;5091922;28;20032;-92
2023/11/23 04:06:58;;;;;;;22.73;13.02;;;;;;;;;;5040233;28;20052;-91
2023/11/23 04:09:25;;;;;;;22.10;12.95;;;;;;;;;;5059521;28;20039;-91
2023/11/23 04:11:53;;;;;;;23.00;13.60;;;;;;;;;;5058670;28;20115;-91
2023/11/23 04:14:18;;;;;;;23.80;13.55;;;;;;;;;;5057812;28;20606;-91
2023/11/23 04:16:44;;;;;;;23.13;13.35;;;;;;;;;;5058385;28;20032;-91
2023/11/23 04:19:09;;;;;;;21.83;12.90;;;;;;;;;;5037841;28;20166;-91
2023/11/23 04:21:34;;;;;;;21.35;12.65;;;;;;;;;;5039959;28;20514;-91
2023/11/23 04:24:00;;;;;;;20.73;12.23;;;;;;;;;;5050252;28;20040;-91
2023/11/23 04:26:25;;;;;;;20.23;12.52;;;;;;;;;;5051218;28;20033;-90
2023/11/23 04:28:51;;;;;;;19.80;12.25;;;;;;;;;;5058445;28;20494;-91
2023/11/23 04:31:18;;;;;;;21.95;12.48;;;;;;;;;;5038054;28;20414;-90
2023/11/23 04:33:44;;;;;;;18.30;11.95;;;;;;;;;;5072136;28;20082;-93
2023/11/23 04:36:11;;;;;;;20.95;11.52;;;;;;;;;;5056600;28;20044;-90
2023/11/23 04:38:36;;;;;;;17.55;10.95;;;;;;;;;;5050593;28;20032;-78
2023/11/23 04:41:02;;;;;;;22.88;12.02;;;;;;;;;;5061197;28;20044;-77
2023/11/23 04:43:28;;;;;;;19.08;11.65;;;;;;;;;;5041382;28;20056;-78
2023/11/23 04:45:53;;;;;;;18.40;11.18;;;;;;;;;;5051499;28;20494;-77
2023/11/23 04:48:18;;;;;;;23.50;11.13;;;;;;;;;;5070626;28;20032;-78
2023/11/23 04:50:44;;;;;;;17.95;10.93;;;;;;;;;;5053022;28;20482;-78
2023/11/23 04:53:09;;;;;;;17.23;10.82;;;;;;;;;;5037983;28;20044;-78
2023/11/23 04:55:35;;;;;;;16.92;10.90;;;;;;;;;;5053715;28;20043;-78
2023/11/23 04:58:01;;;;;;;17.55;10.82;;;;;;;;;;5052219;28;20528;-78
2023/11/23 05:00:27;;;;;;;17.30;11.07;;;;;;;;;;5078226;28;20055;-77
2023/11/23 05:02:53;;;;;;;18.85;10.82;;;;;;;;;;5035489;28;20470;-78
2023/11/23 05:05:18;;;;;;;19.23;10.65;;;;;;;;;;5063987;28;20093;-77
2023/11/23 05:07:45;;;;;;;19.08;10.85;;;;;;;;;;5063937;28;20482;-78
2023/11/23 05:10:10;;;;;;;22.70;11.70;;;;;;;;;;5069021;28;20025;-78
2023/11/23 05:12:37;;;;;;;20.63;11.20;;;;;;;;;;5065550;28;20025;-78
2023/11/23 05:15:03;;;;;;;23.73;12.73;;;;;;;;;;5063822;28;20040;-77
2023/11/23 05:17:33;;;;;;;22.27;12.38;;;;;;;;;;5065154;28;20133;-77
2023/11/23 05:19:59;;;;;;;23.85;12.55;;;;;;;;;;5065637;28;20380;-78
2023/11/23 05:22:26;;;;;;;22.77;12.23;;;;;;;;;;5069417;28;20036;-78
2023/11/23 05:24:52;;;;;;;20.92;11.90;;;;;;;;;;5062621;28;20119;-77
2023/11/23 05:27:19;;;;;;;24.13;11.65;;;;;;;;;;5072182;28;20119;-78
2023/11/23 05:29:44;;;;;;;23.55;12.23;;;;;;;;;;5065102;28;20020;-77
2023/11/23 05:32:10;;;;;;;22.05;11.35;;;;;;;;;;5067412;28;20374;-78
2023/11/23 05:34:35;;;;;;;24.27;13.07;;;;;;;;;;5049731;28;20508;-77
2023/11/23 05:37:00;;;;;;;20.23;11.88;;;;;;;;;;5067739;28;20036;-77
2023/11/23 05:39:26;;;;;;;20.75;12.90;;;;;;;;;;5045885;28;20044;-78
2023/11/23 05:41:52;;;;;;;24.70;12.43;;;;;;;;;;5054243;28;20035;-78
2023/11/23 05:44:17;;;;;;;23.25;11.82;;;;;;;;;;5065145;28;20064;-78
2023/11/23 05:46:43;;;;;;;22.67;12.02;;;;;;;;;;5054311;28;20371;-78
2023/11/23 05:49:09;;;;;;;21.55;11.98;;;;;;;;;;5065894;28;20051;-78
2023/11/23 05:51:34;;;;;;;25.88;12.15;;;;;;;;;;5063425;28;20429;-78
2023/11/23 05:54:00;;;;;;;23.48;11.93;;;;;;;;;;5061007;28;20038;-78
2023/11/23 05:56:28;;;;;;;20.70;11.52;;;;;;;;;;5050157;28;20044;-77
2023/11/23 05:58:53;;;;;;;26.13;12.20;;;;;;;;;;5050205;28;20033;-78
2023/11/23 06:01:19;;;;;;;22.80;12.00;;;;;;;;;;5050401;28;20033;-78
2023/11/23 06:03:45;;;;;;;20.63;12.00;;;;;;;;;;5063742;28;20028;-78
2023/11/23 06:06:21;;;;;;;27.80;13.13;;;;;;;;;;5070360;28;20918;-78
2023/11/23 06:08:47;;;;;;;21.08;11.88;;;;;;;;;;5065987;28;20033;-78
2023/11/23 06:11:14;;;;;;;21.73;11.55;;;;;;;;;;5049707;28;20016;-78
2023/11/23 06:13:40;;;;;;;19.52;11.45;;;;;;;;;;5055749;28;20032;-77
2023/11/23 06:16:06;;;;;;;18.48;10.90;;;;;;;;;;5061873;28;20456;-78
2023/11/23 06:18:32;;;;;;;22.67;12.10;;;;;;;;;;5054634;28;20124;-77
2023/11/23 06:20:57;;;;;;;18.58;11.05;;;;;;;;;;5045167;28;20033;-77
2023/11/23 06:23:23;;;;;;;19.85;11.07;;;;;;;;;;5032479;28;20123;-78
2023/11/23 06:25:48;;;;;;;21.15;10.38;;;;;;;;;;5064951;28;20025;-78
2023/11/23 06:28:14;;;;;;;20.90;10.32;;;;;;;;;;5050393;28;20398;-78
2023/11/23 06:30:40;;;;;;;20.65;9.82;;;;;;;;;;5051267;28;20032;-77
2023/11/23 06:33:05;;;;;;;17.90;10.27;;;;;;;;;;5045358;28;20032;-78
2023/11/23 06:35:30;;;;;;;18.48;9.63;;;;;;;;;;5052372;28;20405;-77
2023/11/23 06:37:57;;;;;;;21.98;9.68;;;;;;;;;;5052577;28;20039;-78
2023/11/23 06:40:24;;;;;;;20.40;10.20;;;;;;;;;;5049208;28;20123;-78
2023/11/23 06:42:49;;;;;;;18.52;10.13;;;;;;;;;;5055834;28;20119;-78
2023/11/23 06:45:16;;;;;;;17.52;9.57;;;;;;;;;;5052021;28;20115;-78
2023/11/23 06:47:43;;;;;;;22.98;10.40;;;;;;;;;;5049858;28;20021;-78
2023/11/23 06:50:08;;;;;;;21.63;10.90;;;;;;;;;;5067033;28;20032;-78
2023/11/23 06:52:34;;;;;;;18.55;10.93;;;;;;;;;;5036861;28;20409;-77
2023/11/23 06:55:01;;;;;;;17.50;10.10;;;;;;;;;;5061903;28;20113;-77
2023/11/23 06:57:27;;;;;;;21.45;10.40;;;;;;;;;;5052315;28;20025;-89
2023/11/23 06:59:53;;;;;;;19.80;10.40;;;;;;;;;;5049739;28;20021;-89
2023/11/23 07:02:18;;;;;;;20.08;11.00;;;;;;;;;;5069648;28;20029;-92
2023/11/23 07:04:44;;;;;;;17.33;10.13;;;;;;;;;;5036058;28;20039;-93
2023/11/23 07:07:09;;;;;;;18.02;10.88;;;;;;;;;;5066685;28;20021;-89
2023/11/23 07:09:35;;;;;;;18.77;10.93;;;;;;;;;;5049928;28;20131;-91
2023/11/23 07:12:01;;;;;;;19.25;11.23;;;;;;;;;;5035267;28;20033;-90
2023/11/23 07:14:27;;;;;;;21.23;10.32;;;;;;;;;;5053390;28;20064;-91
2023/11/23 07:16:52;;;;;;;19.48;10.75;;;;;;;;;;5050770;28;20036;-90
2023/11/23 07:19:19;;;;;;;17.35;10.55;;;;;;;;;;5038004;28;20503;-91
2023/11/23 07:21:45;;;;;;;16.70;10.23;;;;;;;;;;5071506;28;20025;-89
2023/11/23 07:24:10;;;;;;;23.10;10.73;;;;;;;;;;5049981;28;20060;-90
2023/11/23 07:26:36;;;;;;;18.35;10.52;;;;;;;;;;5051648;28;20113;-78
2023/11/23 07:29:05;;;;;;;20.17;10.32;;;;;;;;;;5065115;28;20060;-77
2023/11/23 07:31:32;;;;;;;18.30;10.55;;;;;;;;;;5063379;28;20032;-78
2023/11/23 07:34:00;;;;;;;15.30;8.85;;;;;;;;;;5061991;28;20150;-77
2023/11/23 07:36:26;;;;;;;18.38;9.70;;;;;;;;;;5065820;28;20067;-78
2023/11/23 07:38:52;;;;;;;19.10;9.93;;;;;;;;;;5066247;28;20095;-77
2023/11/23 07:41:18;;;;;;;19.83;10.63;;;;;;;;;;5060337;28;20427;-78
2023/11/23 07:43:46;;;;;;;17.45;10.13;;;;;;;;;;5066514;28;20032;-78
2023/11/23 07:46:12;;;;;;;17.83;11.05;;;;;;;;;;5048343;28;20036;-78
2023/11/23 07:48:37;;;;;;;18.67;10.32;;;;;;;;;;5046883;28;20475;-78
2023/11/23 07:51:03;;;;;;;16.00;10.13;;;;;;;;;;5068288;28;20036;-78
2023/11/23 07:53:30;;;;;;;25.80;10.90;;;;;;;;;;5050836;28;20041;-78
2023/11/23 07:55:57;;;;;;;17.25;10.77;;;;;;;;;;5052988;28;20033;-78
2023/11/23 07:58:23;;;;;;;16.98;9.80;;;;;;;;;;5063980;28;20032;-78
2023/11/23 08:00:49;;;;;;;17.67;10.50;;;;;;;;;;5061522;28;20032;-78
2023/11/23 08:03:14;;;;;;;17.65;10.15;;;;;;;;;;5049266;28;20056;-78
2023/11/23 08:05:40;;;;;;;19.77;9.63;;;;;;;;;;5032979;28;20040;-78
2023/11/23 08:08:05;;;;;;;19.65;10.10;;;;;;;;;;5065674;28;20020;-77
2023/11/23 08:10:31;;;;;;;17.30;9.60;;;;;;;;;;5052116;28;20048;-78
2023/11/23 08:12:58;;;;;;;20.85;9.95;;;;;;;;;;5061178;28;20049;-78
2023/11/23 08:15:24;;;;;;;16.67;10.95;;;;;;;;;;5045816;28;20543;-78
2023/11/23 08:17:50;;;;;;;19.13;10.50;;;;;;;;;;5063698;28;20044;-77
2023/11/23 08:20:16;;;;;;;21.00;10.45;;;;;;;;;;5048610;28;20119;-78
2023/11/23 08:22:41;;;;;;;15.38;9.60;;;;;;;;;;5060831;28;20120;-77
2023/11/23 08:25:07;;;;;;;15.77;9.30;;;;;;;;;;5083117;28;20448;-77
2023/11/23 08:27:32;;;;;;;16.50;8.73;;;;;;;;;;5066148;28;20104;-78
2023/11/23 08:29:59;;;;;;;15.57;9.35;;;;;;;;;;5066652;28;20538;-77
2023/11/23 08:32:25;;;;;;;14.98;9.77;;;;;;;;;;5052216;28;20036;-77
2023/11/23 08:34:51;;;;;;;18.75;9.70;;;;;;;;;;5049256;28;20422;-78
2023/11/23 08:37:16;;;;;;;16.30;9.27;;;;;;;;;;5069031;28;20072;-87
2023/11/23 08:39:46;;;;;;;16.35;9.70;;;;;;;;;;5072687;28;20116;-87
2023/11/23 08:42:12;;;;;;;18.98;9.40;;;;;;;;;;5054867;28;20393;-88
2023/11/23 08:44:37;;;;;;;15.48;9.50;;;;;;;;;;5050326;28;20033;-87
2023/11/23 08:47:03;;;;;;;15.88;8.93;;;;;;;;;;5069530;28;20112;-86
2023/11/23 08:49:31;;;;;;;15.70;8.60;;;;;;;;;;5067945;28;20501;-86
2023/11/23 08:51:56;;;;;;;14.10;8.82;;;;;;;;;;5067272;28;20035;-87
2023/11/23 08:54:22;;;;;;;15.43;8.18;;;;;;;;;;5053369;28;20029;-86
2023/11/23 08:56:48;;;;;;;15.90;8.63;;;;;;;;;;5056847;28;20052;-87
2023/11/23 08:59:14;;;;;;;16.92;8.00;;;;;;;;;;5069312;28;20028;-87
2023/11/23 09:01:39;;;;;;;16.98;8.32;;;;;;;;;;5087878;28;20055;-87
2023/11/23 09:04:05;;;;;;;18.20;9.13;;;;;;;;;;5069970;28;20036;-87
2023/11/23 09:06:30;;;;;;;17.17;8.43;;;;;;;;;;5064047;28;20086;-87
2023/11/23 09:09:00;;;;;;;17.60;9.05;;;;;;;;;;5085666;28;20028;-86
2023/11/23 09:11:26;;;;;;;17.63;8.80;;;;;;;;;;5042280;28;20091;-87
2023/11/23 09:13:52;;;;;;;17.08;8.73;;;;;;;;;;5057660;28;20036;-86
2023/11/23 09:16:18;;;;;;;18.15;8.63;;;;;;;;;;5067382;28;20115;-79
2023/11/23 09:18:43;;;;;;;14.93;8.32;;;;;;;;;;5054284;28;20100;-87
2023/11/23 09:21:10;;;;;;;16.20;8.27;;;;;;;;;;5066482;28;20131;-87
2023/11/23 09:23:36;;;;;;;16.75;8.23;;;;;;;;;;5062095;28;20036;-87
2023/11/23 09:26:03;;;;;;;16.52;8.75;;;;;;;;;;5073121;28;20032;-86
2023/11/23 09:28:29;;;;;;;16.25;8.57;;;;;;;;;;5083044;28;20020;-87
2023/11/23 09:30:54;;;;;;;15.90;8.32;;;;;;;;;;5046361;28;20479;-86
2023/11/23 09:33:21;;;;;;;16.80;8.88;;;;;;;;;;5072560;28;20044;-88
2023/11/23 09:35:47;;;;;;;15.48;8.35;;;;;;;;;;5071182;28;20095;-87
2023/11/23 09:38:13;;;;;;;12.85;7.80;;;;;;;;;;5050969;28;20039;-87
2023/11/23 09:40:40;;;;;;;18.55;8.05;;;;;;;;;;5063536;28;20048;-88
2023/11/23 09:43:06;;;;;;;11.50;7.50;;;;;;;;;;5086384;28;20082;-87
2023/11/23 09:45:32;;;;;;;16.00;8.38;;;;;;;;;;5067173;28;20032;-87
2023/11/23 09:47:59;;;;;;;13.93;7.82;;;;;;;;;;5052584;28;20037;-87
2023/11/23 09:50:27;;;;;;;13.88;8.02;;;;;;;;;;5069986;28;20026;-87
2023/11/23 09:52:53;;;;;;;17.98;7.97;;;;;;;;;;5049154;28;20424;-86
2023/11/23 09:55:20;;;;;;;16.55;8.30;;;;;;;;;;5071672;28;20103;-86
2023/11/23 09:57:50;;;;;;;17.25;8.60;;;;;;;;;;5066725;28;20041;-87
2023/11/23 10:00:18;;;;;;;15.73;7.68;;;;;;;;;;5066921;28;20497;-86
2023/11/23 10:02:48;;;;;;;14.90;8.45;;;;;;;;;;5069392;28;20029;-86
2023/11/23 10:05:15;;;;;;;15.15;8.50;;;;;;;;;;5072281;28;20474;-86
2023/11/23 10:07:42;;;;;;;17.42;8.75;;;;;;;;;;5072038;28;20039;-86
2023/11/23 10:10:12;;;;;;;15.63;9.23;;;;;;;;;;5055783;28;20040;-86
2023/11/23 10:12:39;;;;;;;16.25;8.60;;;;;;;;;;5072204;28;20501;-86
2023/11/23 10:15:06;;;;;;;15.38;8.65;;;;;;;;;;5071838;28;20039;-86
2023/11/23 10:17:32;;;;;;;16.42;8.35;;;;;;;;;;5069935;28;20039;-86
2023/11/23 10:20:26;;;;;;;15.85;8.57;;;;;;;;;;5086707;28;20082;-86
2023/11/23 10:22:52;;;;;;;16.70;9.05;;;;;;;;;;5066244;28;20043;-86
2023/11/23 10:25:35;;;;;;;17.02;8.50;;;;;;;;;;5071355;28;20393;-86
2023/11/23 10:28:03;;;;;;;14.68;8.70;;;;;;;;;;5070439;28;20039;-86
2023/11/23 10:30:30;;;;;;;15.52;8.82;;;;;;;;;;5054989;28;20025;-86
2023/11/23 10:32:56;;;;;;;17.08;7.97;;;;;;;;;;5055465;28;20030;-86
2023/11/23 10:35:24;;;;;;;19.90;8.43;;;;;;;;;;5054657;28;20033;-86
2023/11/23 10:37:54;;;;;;;18.52;9.65;;;;;;;;;;5068549;28;20397;-86
2023/11/23 10:40:21;;;;;;;18.45;9.07;;;;;;;;;;5067990;28;20045;-85
2023/11/23 10:42:49;;;;;;;14.80;7.95;;;;;;;;;;5067966;28;20676;-86
2023/11/23 10:45:17;;;;;;;15.20;7.78;;;;;;;;;;5088036;28;20054;-87
2023/11/23 10:47:44;;;;;;;12.43;7.45;;;;;;;;;;5065356;28;20088;-86
2023/11/23 10:50:10;;;;;;;12.65;7.25;;;;;;;;;;5069124;28;20115;-86
2023/11/23 10:52:35;;;;;;;13.60;7.20;;;;;;;;;;5054732;28;20466;-86
2023/11/23 10:55:01;;;;;;;13.70;7.20;;;;;;;;;;5053975;28;20054;-87
2023/11/23 10:57:27;;;;;;;13.98;6.88;;;;;;;;;;5085612;28;20040;-86
2023/11/23 10:59:55;;;;;;;16.45;6.40;;;;;;;;;;5084518;28;20105;-86
2023/11/23 11:02:23;;;;;;;11.23;5.88;;;;;;;;;;5051183;28;20474;-86
2023/11/23 11:04:48;;;;;;;11.65;5.45;;;;;;;;;;5066749;28;20048;-86
2023/11/23 11:07:14;;;;;;;14.35;5.85;;;;;;;;;;5051281;28;20036;-86
2023/11/23 11:09:39;;;;;;;14.52;8.57;;;;;;;;;;5051990;28;20120;-86
2023/11/23 11:12:12;;;;;;;10.80;6.20;;;;;;;;;;5044844;28;20086;-86
2023/11/23 11:14:48;;;;;;;9.55;4.53;;;;;;;;;;5069404;28;20540;-86
2023/11/23 11:17:14;;;;;;;11.05;4.40;;;;;;;;;;5063749;28;20147;-85
2023/11/23 11:19:45;;;;;;;9.68;4.22;;;;;;;;;;5068972;28;20442;-86
2023/11/23 11:22:12;;;;;;;10.77;4.43;;;;;;;;;;5068875;28;20466;-86
2023/11/23 11:24:37;;;;;;;11.30;4.32;;;;;;;;;;5050811;28;20053;-86
2023/11/23 11:27:07;;;;;;;9.95;4.07;;;;;;;;;;5061870;28;20032;-86
2023/11/23 11:29:33;;;;;;;9.43;4.20;;;;;;;;;;5064523;28;20274;-86
2023/11/23 11:32:07;;;;;;;8.30;4.55;;;;;;;;;;5065370;28;20032;-85
2023/11/23 11:34:36;;;;;;;12.02;4.20;;;;;;;;;;5062892;28;20039;-86
2023/11/23 11:37:03;;;;;;;10.77;4.35;;;;;;;;;;5066867;28;20060;-85
2023/11/23 11:39:36;;;;;;;8.07;3.95;;;;;;;;;;5066798;28;20036;-85
2023/11/23 11:42:04;;;;;;;8.32;3.63;;;;;;;;;;5052064;28;20045;-86
2023/11/23 11:44:33;;;;;;;7.90;3.70;;;;;;;;;;5036603;28;20183;-85
2023/11/23 11:46:59;;;;;;;11.30;4.13;;;;;;;;;;5071415;28;20032;-85
2023/11/23 11:49:25;;;;;;;13.88;4.18;;;;;;;;;;5064309;28;20512;-86
2023/11/23 11:51:51;;;;;;;9.93;3.95;;;;;;;;;;5069561;28;20474;-86
2023/11/23 11:54:22;;;;;;;10.15;4.00;;;;;;;;;;5065598;28;20029;-85
2023/11/23 11:56:49;;;;;;;9.57;3.75;;;;;;;;;;5065818;28;20025;-85
2023/11/23 11:59:23;;;;;;;10.27;3.78;;;;;;;;;;5048739;28;20206;-86
2023/11/23 12:01:49;;;;;;;7.60;4.10;;;;;;;;;;5079911;28;20119;-86
2023/11/23 12:04:16;;;;;;;9.18;3.42;;;;;;;;;;5073219;28;20484;-86
2023/11/23 12:06:44;;;;;;;6.18;3.50;;;;;;;;;;5052853;28;20041;-86
2023/11/23 12:09:19;;;;;;;9.75;3.40;;;;;;;;;;5067714;28;20509;-86
2023/11/23 12:11:45;;;;;;;9.57;4.28;;;;;;;;;;5072268;28;20021;-85
2023/11/23 12:14:11;;;;;;;9.20;3.70;;;;;;;;;;5070246;28;20032;-85
2023/11/23 12:16:37;;;;;;;6.85;3.40;;;;;;;;;;5074214;28;20036;-86
2023/11/23 12:19:24;;;;;;;8.73;3.85;;;;;;;;;;5065595;28;20035;-85
2023/11/23 12:21:55;;;;;;;10.48;3.60;;;;;;;;;;5072064;28;20048;-86
2023/11/23 12:24:21;;;;;;;10.23;3.70;;;;;;;;;;5084468;28;20032;-86
2023/11/23 12:26:48;;;;;;;9.55;3.53;;;;;;;;;;5070705;28;20033;-86
2023/11/23 12:29:26;;;;;;;8.05;3.05;;;;;;;;;;5057696;28;20027;-85
2023/11/23 12:31:52;;;;;;;6.95;2.78;;;;;;;;;;5068821;28;20060;-86
2023/11/23 12:34:21;;;;;;;7.40;2.70;;;;;;;;;;5065970;28;20025;-86
2023/11/23 12:36:49;;;;;;;8.35;2.80;;;;;;;;;;5067076;28;20039;-85
2023/11/23 12:39:15;;;;;;;13.25;3.10;;;;;;;;;;5074591;28;20059;-85
2023/11/23 12:41:41;;;;;;;10.05;2.80;;;;;;;;;;5055670;28;20073;-85
2023/11/23 12:44:06;;;;;;;7.65;3.08;;;;;;;;;;5088941;28;20052;-85
2023/11/23 12:46:32;;;;;;;6.70;2.70;;;;;;;;;;5065132;28;20438;-86
2023/11/23 12:48:57;;;;;;;8.60;2.40;;;;;;;;;;5056385;28;20040;-85
2023/11/23 12:51:23;;;;;;;10.30;2.90;;;;;;;;;;5094276;28;20045;-86
2023/11/23 12:53:49;;;;;;;7.68;2.60;;;;;;;;;;5041428;28;20032;-85
2023/11/23 12:56:14;;;;;;;6.43;2.10;;;;;;;;;;5086028;28;20115;-85
2023/11/23 12:58:40;;;;;;;8.80;2.45;;;;;;;;;;5102719;28;20072;-86
2023/11/23 13:01:05;;;;;;;8.68;2.75;;;;;;;;;;5068903;28;20037;-85
2023/11/23 13:03:31;;;;;;;7.65;2.58;;;;;;;;;;5089058;28;20131;-84
2023/11/23 13:05:56;;;;;;;8.68;2.20;;;;;;;;;;5050902;28;20087;-85
2023/11/23 13:08:22;;;;;;;12.38;3.90;;;;;;;;;;5070029;28;20471;-85
2023/11/23 13:10:47;;;;;;;6.22;2.15;;;;;;;;;;5070319;28;20398;-85
2023/11/23 13:13:13;;;;;;;8.48;2.58;;;;;;;;;;5050730;28;20375;-85
2023/11/23 13:15:38;;;;;;;9.68;2.50;;;;;;;;;;5053793;28;20075;-85
2023/11/23 13:18:04;;;;;;;8.63;2.60;;;;;;;;;;5064171;28;20394;-85
2023/11/23 13:20:31;;;;;;;8.68;2.50;;;;;;;;;;5063268;28;20628;-84
2023/11/23 13:23:02;;;;;;;8.30;2.45;;;;;;;;;;5055461;28;20036;-85
2023/11/23 13:25:29;;;;;;;9.95;2.60;;;;;;;;;;5066419;28;20120;-85
2023/11/23 13:27:56;;;;;;;8.00;3.25;;;;;;;;;;5050645;28;20056;-85
2023/11/23 13:30:25;;;;;;;8.30;2.47;;;;;;;;;;5082302;28;20032;-86
2023/11/23 13:32:57;;;;;;;8.48;2.53;;;;;;;;;;5051762;28;20040;-85
2023/11/23 13:35:23;;;;;;;7.45;2.40;;;;;;;;;;5067124;28;20044;-85
2023/11/23 13:37:49;;;;;;;8.77;2.53;;;;;;;;;;5066547;28;20056;-85
2023/11/23 13:40:15;;;;;;;9.40;2.65;;;;;;;;;;5070566;28;20429;-85
2023/11/23 13:42:43;;;;;;;9.20;2.30;;;;;;;;;;5065044;28;20033;-85
2023/11/23 13:45:09;;;;;;;7.22;2.40;;;;;;;;;;5079398;28;20104;-85
2023/11/23 13:47:36;;;;;;;8.48;2.53;;;;;;;;;;5069555;28;20093;-85
2023/11/23 13:50:07;;;;;;;9.35;3.30;;;;;;;;;;5071114;28;20081;-85
2023/11/23 13:52:34;;;;;;;9.68;2.60;;;;;;;;;;5067057;28;20481;-85
2023/11/23 13:55:00;;;;;;;8.68;2.40;;;;;;;;;;5067830;28;20082;-85
2023/11/23 13:57:25;;;;;;;12.20;3.15;;;;;;;;;;5052145;28;20439;-78
2023/11/23 13:59:51;;;;;;;10.40;2.53;;;;;;;;;;5063880;28;20445;-78
2023/11/23 14:02:16;;;;;;;5.53;2.45;;;;;;;;;;5066871;28;20029;-78
2023/11/23 14:04:43;;;;;;;10.75;2.60;;;;;;;;;;5068355;28;20032;-78
2023/11/23 14:07:08;;;;;;;9.35;2.40;;;;;;;;;;5067201;28;20032;-78
2023/11/23 14:09:34;;;;;;;9.57;2.60;;;;;;;;;;5069395;28;20028;-77
2023/11/23 14:11:59;;;;;;;7.25;2.50;;;;;;;;;;5061915;28;20049;-78
2023/11/23 14:14:27;;;;;;;9.68;2.38;;;;;;;;;;5050555;28;20032;-78
2023/11/23 14:16:53;;;;;;;8.27;2.78;;;;;;;;;;5064998;28;20036;-78
2023/11/23 14:19:19;;;;;;;7.63;3.05;;;;;;;;;;5067402;28;20056;-78
2023/11/23 14:21:50;;;;;;;6.70;2.20;;;;;;;;;;5068199;28;20021;-78